EFSI/SJY METAR and TAF weather

Enter ICAO airport designator
Station Type Date Time Source
EFSI METAR 2018/07/16 23:50 UTC NOAA

EFSI 162350Z AUTO 31001KT CAVOK 13/12 Q1018


Station Type Date Time Source
EFSI Decoded METAR 2018/07/16 23:50 UTC NOAA

Seinajoki-Ilmajok, Finland (EFSI) 62-41-37N 022-49-55E
Jul 16, 2018 - 07:50 PM EDT / 2018.07.16 2350 UTC
Wind: from the NW (310 degrees) at 1 MPH (1 KT):0
Visibility: greater than 7 mile(s):0
Temperature: 55 F (13 C)
Dew Point: 53 F (12 C)
Relative Humidity: 93%
Pressure (altimeter): 30.06 in. Hg (1018 hPa)
ob: EFSI 162350Z AUTO 31001KT CAVOK 13/12 Q1018
cycle: 0

Station Type Date Time Source
EFSI TAF 2012/03/06 09:42 UTC NOAA

TAF EFSI 060830Z 0609/0621 12003KT CAVOK


Example: see airport list